Data Viewer
| City | State | Eastern Time | Source | Temp | DewPt | RH | BP | 5 Min Precip | Wind Speed | Wind Dir | 5 Min Wind Max | 5 Min Wind Max Dir |
|---|---|---|---|---|---|---|---|---|---|---|---|---|
| Loch Lomond | PA | 2026-05-01 14:42 | RAWS | 67 | 33 | 28 | 3 | NW | ||||
| Loch Lomond | PA | 2026-05-02 03:42 | RAWS | 45 | 45 | 100 | 2 | WSW | ||||
| Loch Lomond | PA | 2026-05-02 12:42 | RAWS | 53 | 29 | 39 | 6 | NNE | ||||
| Loch Lomond | PA | 2026-05-02 11:42 | RAWS | 55 | 32 | 41 | 6 | NE | ||||
| Loch Lomond | PA | 2026-05-02 10:42 | RAWS | 51 | 35 | 54 | 5 | NNE | ||||
| Loch Lomond | PA | 2026-05-02 09:42 | RAWS | 48 | 36 | 63 | 6 | NNE | ||||
| Loch Lomond | PA | 2026-05-02 08:42 | RAWS | 44 | 39 | 82 | 3 | NNE | ||||
| Loch Lomond | PA | 2026-05-02 07:42 | RAWS | 43 | 41 | 94 | 5 | NNE | ||||
| Loch Lomond | PA | 2026-05-02 06:42 | RAWS | 43 | 43 | 100 | 2 | N | ||||
| Loch Lomond | PA | 2026-05-02 05:42 | RAWS | 42 | 42 | 100 | 0 | NW | ||||
| Loch Lomond | PA | 2026-05-02 04:42 | RAWS | 44 | 44 | 100 | 0 | SW | ||||
| Loch Lomond | PA | 2026-05-02 02:42 | RAWS | 45 | 45 | 100 | 0 | W | ||||
| Loch Lomond | PA | 2026-05-01 15:42 | RAWS | 62 | 31 | 31 | 5 | W | ||||
| Loch Lomond | PA | 2026-05-02 01:42 | RAWS | 46 | 46 | 100 | 1 | SSW | ||||
| Loch Lomond | PA | 2026-05-02 00:42 | RAWS | 46 | 45 | 96 | 0 | NE | ||||
| Loch Lomond | PA | 2026-05-01 23:42 | RAWS | 48 | 43 | 84 | 3 | NNE | ||||
| Loch Lomond | PA | 2026-05-01 22:42 | RAWS | 49 | 40 | 72 | 2 | N | ||||
| Loch Lomond | PA | 2026-05-01 21:42 | RAWS | 49 | 40 | 70 | 1 | N | ||||
| Loch Lomond | PA | 2026-05-01 20:42 | RAWS | 51 | 37 | 58 | 2 | N | ||||
| Loch Lomond | PA | 2026-05-01 19:42 | RAWS | 53 | 37 | 55 | 3 | WNW | ||||
| Loch Lomond | PA | 2026-05-01 18:42 | RAWS | 55 | 34 | 46 | 4 | NNE | ||||
| Loch Lomond | PA | 2026-05-01 17:42 | RAWS | 58 | 32 | 38 | 1 | W | ||||
| Loch Lomond | PA | 2026-05-01 16:42 | RAWS | 60 | 31 | 34 | 4 | WSW | ||||
| Loch Lomond | PA | 2026-05-02 13:42 | RAWS | 55 | 27 | 34 | 5 | N |
data collection created in 0.0064840316772461 (queried in 0.003329) rendered in: 2.8848648071289E-5

